createdAt,value
2016-11-22T00:00:17.229Z,0
2016-11-22T00:01:16.882Z,0
2016-11-22T00:02:17.145Z,0
2016-11-22T00:03:16.515Z,0
2016-11-22T00:04:17.085Z,0
2016-11-22T00:05:16.442Z,0
2016-11-22T00:06:17.016Z,0
2016-11-22T00:07:16.987Z,0
2016-11-22T00:08:16.948Z,0
2016-11-22T00:09:16.918Z,0
2016-11-22T00:10:16.882Z,0
2016-11-22T00:11:16.844Z,0
2016-11-22T00:12:16.524Z,0
2016-11-22T00:13:16.783Z,0
2016-11-22T00:14:16.444Z,0
2016-11-22T00:15:16.714Z,0
2016-11-22T00:16:16.374Z,0
2016-11-22T00:17:16.651Z,0
2016-11-22T00:18:16.313Z,0
2016-11-22T00:19:16.579Z,0
2016-11-22T00:20:16.553Z,0
2016-11-22T00:21:16.510Z,0
2016-11-22T00:22:16.483Z,0
2016-11-22T00:23:16.456Z,0
2016-11-22T00:24:16.409Z,0
2016-11-22T00:25:16.382Z,0
2016-11-22T00:26:16.347Z,0
2016-11-22T00:27:16.313Z,0
2016-11-22T00:28:16.278Z,0
2016-11-22T00:29:16.248Z,0
2016-11-22T00:30:16.210Z,0
2016-11-22T00:31:15.567Z,0
2016-11-22T00:32:15.839Z,0
2016-11-22T00:33:15.813Z,0
2016-11-22T00:34:16.077Z,0
2016-11-22T00:35:15.737Z,0
2016-11-22T00:36:16.011Z,0
2016-11-22T00:37:15.980Z,0
2016-11-22T00:38:15.634Z,0
2016-11-22T00:39:15.604Z,0
2016-11-22T00:40:15.572Z,0
2016-11-22T00:41:15.844Z,0
2016-11-22T00:42:15.203Z,0
2016-11-22T00:43:15.774Z,0
2016-11-22T00:44:15.444Z,0
2016-11-22T00:45:15.707Z,0
2016-11-22T00:46:15.672Z,0
2016-11-22T00:47:15.636Z,0
2016-11-22T00:48:15.608Z,0
2016-11-22T00:49:15.272Z,0
2016-11-22T00:50:15.540Z,0
2016-11-22T00:51:15.509Z,0
2016-11-22T00:52:14.865Z,0
2016-11-22T00:53:15.142Z,0
2016-11-22T00:54:15.112Z,0
2016-11-22T00:55:15.371Z,0
2016-11-22T00:56:15.038Z,0
2016-11-22T00:57:15.000Z,0
2016-11-22T00:58:15.267Z,0
2016-11-22T00:59:15.237Z,0
2016-11-22T01:00:15.198Z,0
2016-11-22T01:01:14.869Z,0
2016-11-22T01:02:15.137Z,0
2016-11-22T01:03:15.102Z,0
2016-11-22T01:04:14.460Z,0
2016-11-22T01:05:15.038Z,0
2016-11-22T01:06:14.699Z,0
2016-11-22T01:07:14.663Z,0
2016-11-22T01:08:14.935Z,0
2016-11-22T01:09:14.898Z,0
2016-11-22T01:10:14.266Z,0
2016-11-22T01:11:14.830Z,0
2016-11-22T01:12:14.496Z,0
2016-11-22T01:13:14.795Z,0
2016-11-22T01:14:14.425Z,0
2016-11-22T01:15:14.398Z,0
2016-11-22T01:16:14.663Z,0
2016-11-22T01:17:14.338Z,0
2016-11-22T01:18:14.597Z,0
2016-11-22T01:19:14.564Z,0
2016-11-22T01:20:14.229Z,0
2016-11-22T01:21:13.893Z,0
2016-11-22T01:22:14.459Z,0
2016-11-22T01:23:14.429Z,0
2016-11-22T01:24:14.397Z,0
2016-11-22T01:25:14.065Z,0
2016-11-22T01:26:14.340Z,0
2016-11-22T01:27:14.293Z,0
2016-11-22T01:28:14.259Z,0
2016-11-22T01:29:14.232Z,0
2016-11-22T01:30:13.891Z,0
2016-11-22T01:31:13.859Z,0
2016-11-22T01:32:14.129Z,0
2016-11-22T01:33:14.092Z,0
2016-11-22T01:34:14.058Z,0
2016-11-22T01:35:13.724Z,0
2016-11-22T01:36:13.992Z,0
2016-11-22T01:37:13.964Z,0
2016-11-22T01:38:13.924Z,0
2016-11-22T01:39:13.889Z,0
2016-11-22T01:40:13.858Z,0
2016-11-22T01:41:13.829Z,0
2016-11-22T01:42:13.790Z,0
2016-11-22T01:43:13.763Z,0
2016-11-22T01:44:13.421Z,0
2016-11-22T01:45:13.086Z,0
2016-11-22T01:46:13.350Z,0
2016-11-22T01:47:13.636Z,0
2016-11-22T01:48:13.588Z,0
2016-11-22T01:49:13.555Z,0
2016-11-22T01:50:13.518Z,0
2016-11-22T01:51:13.486Z,0
2016-11-22T01:52:13.453Z,0
2016-11-22T01:53:13.420Z,0
2016-11-22T01:54:13.085Z,0
2016-11-22T01:55:13.350Z,0
2016-11-22T01:56:13.323Z,0
2016-11-22T01:57:13.284Z,0
2016-11-22T01:58:12.662Z,0
2016-11-22T01:59:13.216Z,0
2016-11-22T02:00:12.888Z,0
2016-11-22T02:01:12.852Z,0
2016-11-22T02:02:13.119Z,0
2016-11-22T02:03:13.088Z,0
2016-11-22T02:04:13.051Z,0
2016-11-22T02:05:13.019Z,0
2016-11-22T02:06:12.682Z,0
2016-11-22T02:07:12.941Z,0
2016-11-22T02:08:12.914Z,0
2016-11-22T02:09:12.883Z,0
2016-11-22T02:10:12.545Z,0
2016-11-22T02:11:12.812Z,0
2016-11-22T02:12:12.772Z,0
2016-11-22T02:13:12.753Z,0
2016-11-22T02:14:12.710Z,0
2016-11-22T02:15:12.673Z,0
2016-11-22T02:16:12.644Z,0
2016-11-22T02:17:12.307Z,0
2016-11-22T02:18:12.583Z,0
2016-11-22T02:19:12.544Z,0
2016-11-22T02:20:12.505Z,0
2016-11-22T02:21:12.169Z,0
2016-11-22T02:22:12.442Z,0
2016-11-22T02:23:12.405Z,0
2016-11-22T02:24:12.470Z,0
2016-11-22T02:25:12.341Z,0
2016-11-22T02:26:11.998Z,0
2016-11-22T02:27:12.269Z,0
2016-11-22T02:28:12.239Z,0
2016-11-22T02:29:11.903Z,0
2016-11-22T02:30:12.172Z,0
2016-11-22T02:31:11.532Z,0
2016-11-22T02:32:12.097Z,0
2016-11-22T02:33:11.462Z,0
2016-11-22T02:34:12.025Z,0
2016-11-22T02:35:11.997Z,0
2016-11-22T02:36:11.656Z,0
2016-11-22T02:37:11.943Z,0
2016-11-22T02:38:11.585Z,0
2016-11-22T02:39:11.856Z,0
2016-11-22T02:40:11.216Z,0
2016-11-22T02:41:11.482Z,0
2016-11-22T02:42:11.749Z,0
2016-11-22T02:43:11.416Z,0
2016-11-22T02:44:11.679Z,0
2016-11-22T02:45:11.042Z,0
2016-11-22T02:46:11.618Z,0
2016-11-22T02:47:11.576Z,0
2016-11-22T02:48:11.542Z,0
2016-11-22T02:49:11.516Z,0
2016-11-22T02:50:11.480Z,0
2016-11-22T02:51:11.439Z,0
2016-11-22T02:52:11.105Z,0
2016-11-22T02:53:11.370Z,0
2016-11-22T02:54:11.043Z,0
2016-11-22T02:55:11.303Z,0
2016-11-22T02:56:11.270Z,0
2016-11-22T02:57:10.930Z,0
2016-11-22T02:58:10.896Z,0
2016-11-22T02:59:11.168Z,0
2016-11-22T03:00:10.827Z,0
2016-11-22T03:01:10.794Z,0
2016-11-22T03:02:10.756Z,0
2016-11-22T03:03:11.027Z,0
2016-11-22T03:04:10.692Z,0
2016-11-22T03:05:10.957Z,0
2016-11-22T03:06:10.616Z,0
2016-11-22T03:07:10.590Z,0
2016-11-22T03:08:10.861Z,0
2016-11-22T03:09:10.824Z,0
2016-11-22T03:10:10.479Z,0
2016-11-22T03:11:10.743Z,0
2016-11-22T03:12:10.710Z,0
2016-11-22T03:13:10.673Z,0
2016-11-22T03:14:10.643Z,0
2016-11-22T03:15:10.610Z,0
2016-11-22T03:16:10.575Z,0
2016-11-22T03:17:10.547Z,0
2016-11-22T03:18:10.198Z,0
2016-11-22T03:19:10.468Z,0
2016-11-22T03:20:10.430Z,0
2016-11-22T03:21:10.097Z,0
2016-11-22T03:22:10.357Z,0
2016-11-22T03:23:10.322Z,0
2016-11-22T03:24:09.681Z,0
2016-11-22T03:25:09.948Z,0
2016-11-22T03:26:09.911Z,0
2016-11-22T03:27:09.888Z,0
2016-11-22T03:28:10.144Z,0
2016-11-22T03:29:10.110Z,0
2016-11-22T03:30:10.075Z,0
2016-11-22T03:31:10.038Z,0
2016-11-22T03:32:10.005Z,0
2016-11-22T03:33:09.663Z,0
2016-11-22T03:34:09.935Z,0
2016-11-22T03:35:09.893Z,0
2016-11-22T03:36:09.566Z,0
2016-11-22T03:37:09.821Z,0
2016-11-22T03:38:09.789Z,0
2016-11-22T03:39:09.476Z,0
2016-11-22T03:40:09.718Z,0
2016-11-22T03:41:09.685Z,0
2016-11-22T03:42:09.341Z,0
2016-11-22T03:43:09.305Z,0
2016-11-22T03:44:09.574Z,0
2016-11-22T03:45:09.232Z,0
2016-11-22T03:46:09.511Z,0
2016-11-22T03:47:09.165Z,0
2016-11-22T03:48:09.126Z,0
2016-11-22T03:49:09.399Z,0
2016-11-22T03:50:09.361Z,0
2016-11-22T03:51:09.324Z,0
2016-11-22T03:52:08.984Z,0
2016-11-22T03:53:09.252Z,0
2016-11-22T03:54:08.610Z,0
2016-11-22T03:55:09.177Z,0
2016-11-22T03:56:09.142Z,0
2016-11-22T03:57:09.106Z,0
2016-11-22T03:58:08.487Z,0
2016-11-22T03:59:09.026Z,0
2016-11-22T04:00:08.693Z,0
2016-11-22T04:01:08.655Z,0
2016-11-22T04:02:08.920Z,0
2016-11-22T04:03:08.890Z,0
2016-11-22T04:04:08.546Z,0
2016-11-22T04:05:08.822Z,0
2016-11-22T04:06:08.483Z,0
2016-11-22T04:07:08.741Z,0
2016-11-22T04:08:08.429Z,0
2016-11-22T04:09:08.662Z,0
2016-11-22T04:10:08.322Z,0
2016-11-22T04:11:08.591Z,0
2016-11-22T04:12:08.558Z,0
2016-11-22T04:13:08.512Z,0
2016-11-22T04:14:08.177Z,0
2016-11-22T04:15:08.145Z,0
2016-11-22T04:16:08.101Z,0
2016-11-22T04:17:08.070Z,0
2016-11-22T04:18:08.030Z,0
2016-11-22T04:19:08.001Z,0
2016-11-22T04:20:07.958Z,0
2016-11-22T04:21:07.928Z,0
2016-11-22T04:22:07.891Z,0
2016-11-22T04:23:08.148Z,0
2016-11-22T04:24:08.112Z,0
2016-11-22T04:25:07.771Z,0
2016-11-22T04:26:07.737Z,0
2016-11-22T04:27:07.401Z,0
2016-11-22T04:28:07.973Z,0
2016-11-22T04:29:07.629Z,0
2016-11-22T04:30:07.895Z,0
2016-11-22T04:31:07.550Z,0
2016-11-22T04:32:07.821Z,0
2016-11-22T04:33:07.179Z,0
2016-11-22T04:34:07.442Z,0
2016-11-22T04:35:07.707Z,0
2016-11-22T04:36:07.677Z,0
2016-11-22T04:37:07.340Z,0
2016-11-22T04:38:07.295Z,0
2016-11-22T04:39:07.563Z,0
2016-11-22T04:40:07.527Z,0
2016-11-22T04:41:07.491Z,0
2016-11-22T04:42:07.453Z,0
2016-11-22T04:43:07.111Z,0
2016-11-22T04:44:07.377Z,0
2016-11-22T04:45:07.037Z,0
2016-11-22T04:46:06.701Z,0
2016-11-22T04:47:06.972Z,0
2016-11-22T04:48:07.233Z,0
2016-11-22T04:49:07.193Z,0
2016-11-22T04:50:06.856Z,0
2016-11-22T04:51:07.119Z,0
2016-11-22T04:52:07.084Z,0
2016-11-22T04:53:06.752Z,0
2016-11-22T04:54:07.009Z,0
2016-11-22T04:55:06.975Z,0
2016-11-22T04:56:06.636Z,0
2016-11-22T04:57:06.601Z,0
2016-11-22T04:58:06.863Z,0
2016-11-22T04:59:06.525Z,0
2016-11-22T05:00:06.790Z,0
2016-11-22T05:01:06.451Z,0
2016-11-22T05:02:06.420Z,0
2016-11-22T05:03:06.677Z,0
2016-11-22T05:04:06.638Z,0
2016-11-22T05:05:06.306Z,0
2016-11-22T05:06:06.569Z,0
2016-11-22T05:07:06.529Z,0
2016-11-22T05:08:06.194Z,0
2016-11-22T05:09:06.455Z,0
2016-11-22T05:10:06.415Z,0
2016-11-22T05:11:06.086Z,0
2016-11-22T05:12:06.369Z,0
2016-11-22T05:13:06.004Z,0
2016-11-22T05:14:06.269Z,0
2016-11-22T05:15:06.231Z,0
2016-11-22T05:16:06.200Z,0
2016-11-22T05:17:06.167Z,0
2016-11-22T05:18:05.821Z,0
2016-11-22T05:19:05.778Z,0
2016-11-22T05:20:05.748Z,0
2016-11-22T05:21:06.006Z,0
2016-11-22T05:22:06.002Z,0
2016-11-22T05:23:05.632Z,0
2016-11-22T05:24:05.601Z,0
2016-11-22T05:25:05.863Z,0
2016-11-22T05:26:05.520Z,0
2016-11-22T05:27:05.483Z,0
2016-11-22T05:28:05.747Z,0
2016-11-22T05:29:05.407Z,0
2016-11-22T05:30:05.399Z,0
2016-11-22T05:31:05.029Z,0
2016-11-22T05:32:05.591Z,0
2016-11-22T05:33:05.570Z,0
2016-11-22T05:34:05.523Z,0
2016-11-22T05:35:05.181Z,0
2016-11-22T05:36:05.446Z,0
2016-11-22T05:37:05.408Z,0
2016-11-22T05:38:05.371Z,0
2016-11-22T05:39:05.335Z,0
2016-11-22T05:40:04.999Z,0
2016-11-22T05:41:04.973Z,0
2016-11-22T05:42:04.920Z,0
2016-11-22T05:43:04.879Z,0
2016-11-22T05:44:04.847Z,0
2016-11-22T05:45:05.107Z,0
2016-11-22T05:46:05.068Z,0
2016-11-22T05:47:05.030Z,0
2016-11-22T05:48:04.994Z,0
2016-11-22T05:49:04.658Z,0
2016-11-22T05:50:04.922Z,0
2016-11-22T05:51:04.281Z,0
2016-11-22T05:52:04.845Z,0
2016-11-22T05:53:04.809Z,0
2016-11-22T05:54:04.775Z,0
2016-11-22T05:55:04.741Z,0
2016-11-22T05:56:04.696Z,0
2016-11-22T05:57:04.658Z,0
2016-11-22T05:58:04.014Z,0
2016-11-22T05:59:04.592Z,0
2016-11-22T06:00:04.542Z,0
2016-11-22T06:01:04.504Z,0
2016-11-22T06:02:04.465Z,0
2016-11-22T06:03:04.430Z,0
2016-11-22T06:04:03.785Z,0
2016-11-22T06:05:04.053Z,0
2016-11-22T06:06:04.011Z,0
2016-11-22T06:07:03.980Z,0
2016-11-22T06:08:04.245Z,0
2016-11-22T06:09:03.901Z,0
2016-11-22T06:10:03.591Z,0
2016-11-22T06:11:04.124Z,0
2016-11-22T06:12:04.084Z,4
2016-11-22T06:13:03.751Z,4
2016-11-22T06:14:03.738Z,0
2016-11-22T06:15:03.673Z,4
2016-11-22T06:16:03.634Z,4
2016-11-22T06:17:03.903Z,4
2016-11-22T06:18:03.557Z,4
2016-11-22T06:19:03.516Z,4
2016-11-22T06:20:03.780Z,8
2016-11-22T06:21:03.439Z,8
2016-11-22T06:22:03.404Z,12
2016-11-22T06:23:03.672Z,12
2016-11-22T06:24:03.639Z,16
2016-11-22T06:25:03.598Z,16
2016-11-22T06:26:03.252Z,16
2016-11-22T06:27:03.519Z,20
2016-11-22T06:28:03.477Z,24
2016-11-22T06:29:03.132Z,28
2016-11-22T06:30:03.399Z,36
2016-11-22T06:31:03.364Z,36
2016-11-22T06:32:03.026Z,40
2016-11-22T06:33:02.987Z,48
2016-11-22T06:34:03.251Z,52
2016-11-22T06:35:03.207Z,56
2016-11-22T06:36:03.172Z,60
2016-11-22T06:37:02.831Z,68
2016-11-22T06:38:02.793Z,72
2016-11-22T06:39:03.053Z,80
2016-11-22T06:40:03.018Z,92
2016-11-22T06:41:02.983Z,96
2016-11-22T06:42:02.943Z,112
2016-11-22T06:43:02.600Z,124
2016-11-22T06:44:02.569Z,132
2016-11-22T06:45:02.829Z,144
2016-11-22T06:46:02.787Z,156
2016-11-22T06:47:02.748Z,168
2016-11-22T06:48:02.717Z,180
2016-11-22T06:49:02.671Z,196
2016-11-22T06:50:02.330Z,212
2016-11-22T06:51:02.591Z,228
2016-11-22T06:52:02.584Z,240
2016-11-22T06:53:02.224Z,260
2016-11-22T06:54:02.483Z,280
2016-11-22T06:55:01.841Z,304
2016-11-22T06:56:02.408Z,332
2016-11-22T06:57:02.382Z,360
2016-11-22T06:58:02.327Z,392
2016-11-22T06:59:01.687Z,424
2016-11-22T07:00:01.953Z,456
2016-11-22T07:01:02.225Z,476
2016-11-22T07:02:01.875Z,488
2016-11-22T07:03:01.840Z,496
2016-11-22T07:04:02.097Z,508
2016-11-22T07:05:02.064Z,524
2016-11-22T07:06:02.022Z,540
2016-11-22T07:07:01.984Z,556
2016-11-22T07:08:01.651Z,576
2016-11-22T07:09:01.907Z,596
2016-11-22T07:10:01.864Z,620
2016-11-22T07:11:01.227Z,648
2016-11-22T07:12:01.188Z,680
2016-11-22T07:13:01.753Z,712
2016-11-22T07:14:01.414Z,752
2016-11-22T07:15:01.676Z,792
2016-11-22T07:16:01.340Z,832
2016-11-22T07:17:01.296Z,872
2016-11-22T07:18:01.267Z,912
2016-11-22T07:19:01.521Z,944
2016-11-22T07:20:01.183Z,968
2016-11-22T07:21:01.442Z,984
2016-11-22T07:22:01.109Z,1000
2016-11-22T07:23:01.374Z,1032
2016-11-22T07:24:01.332Z,1072
2016-11-22T07:25:01.292Z,1132
2016-11-22T07:26:01.257Z,1204
2016-11-22T07:27:01.216Z,1268
2016-11-22T07:28:00.876Z,1328
2016-11-22T07:29:00.839Z,1364
2016-11-22T07:30:00.798Z,1408
2016-11-22T07:31:00.757Z,1464
2016-11-22T07:32:00.728Z,1516
2016-11-22T07:33:00.683Z,1580
2016-11-22T07:34:00.950Z,1632
2016-11-22T07:35:00.912Z,1672
2016-11-22T07:36:00.871Z,1704
2016-11-22T07:37:00.830Z,1752
2016-11-22T07:38:00.812Z,1784
2016-11-22T07:39:00.757Z,1804
2016-11-22T07:40:00.727Z,1856
2016-11-22T07:41:00.081Z,1912
2016-11-22T07:42:00.642Z,1996
2016-11-22T07:43:00.606Z,2084
2016-11-22T07:44:00.571Z,2168
2016-11-22T07:45:00.531Z,2232
2016-11-22T07:46:00.490Z,2272
2016-11-22T07:47:00.154Z,2324
2016-11-22T07:48:00.112Z,2360
2016-11-22T07:49:00.385Z,2388
2016-11-22T07:50:00.035Z,2404
2016-11-22T07:51:00.323Z,2412
2016-11-22T07:51:59.966Z,2412
2016-11-22T07:53:00.228Z,2408
2016-11-22T07:53:59.883Z,2408
2016-11-22T07:54:59.846Z,2408
2016-11-22T07:55:59.807Z,2420
2016-11-22T07:57:00.070Z,2420
2016-11-22T07:58:00.041Z,2408
2016-11-22T07:58:59.689Z,2392
2016-11-22T07:59:59.967Z,2392
2016-11-22T08:00:59.918Z,2384
2016-11-22T08:01:59.276Z,2388
2016-11-22T08:02:59.839Z,2372
2016-11-22T08:03:59.501Z,2348
2016-11-22T08:04:59.765Z,2360
2016-11-22T08:05:59.122Z,2388
2016-11-22T08:06:59.386Z,2416
2016-11-22T08:07:59.049Z,2424
2016-11-22T08:08:59.617Z,2432
2016-11-22T08:09:59.577Z,2424
2016-11-22T08:10:59.534Z,2408
2016-11-22T08:11:59.502Z,2388
2016-11-22T08:12:59.157Z,2380
2016-11-22T08:13:59.119Z,2360
2016-11-22T08:14:59.387Z,2312
2016-11-22T08:15:59.040Z,2252
2016-11-22T08:16:59.304Z,2184
2016-11-22T08:17:58.971Z,2116
2016-11-22T08:18:59.230Z,2064
2016-11-22T08:19:59.194Z,2008
2016-11-22T08:20:59.157Z,1952
2016-11-22T08:21:59.118Z,1892
2016-11-22T08:22:59.080Z,1832
2016-11-22T08:23:58.743Z,1780
2016-11-22T08:24:59.002Z,1748
2016-11-22T08:25:58.966Z,1740
2016-11-22T08:26:58.629Z,1760
2016-11-22T08:27:58.890Z,1792
2016-11-22T08:28:58.551Z,1832
2016-11-22T08:29:58.811Z,1852
2016-11-22T08:30:58.780Z,1872
2016-11-22T08:31:58.737Z,1884
2016-11-22T08:32:58.393Z,1896
2016-11-22T08:33:58.661Z,1916
2016-11-22T08:34:58.627Z,1940
2016-11-22T08:35:58.286Z,1964
2016-11-22T08:36:58.247Z,1992
2016-11-22T08:37:58.539Z,2004
2016-11-22T08:38:57.863Z,2020
2016-11-22T08:39:58.435Z,2024
2016-11-22T08:40:58.089Z,2024
2016-11-22T08:41:58.364Z,2028
2016-11-22T08:42:58.016Z,2048
2016-11-22T08:43:57.989Z,2068
2016-11-22T08:44:57.951Z,2084
2016-11-22T08:45:58.211Z,2100
2016-11-22T08:46:58.169Z,2104
2016-11-22T08:47:57.837Z,2104
2016-11-22T08:48:57.796Z,2112
2016-11-22T08:49:57.755Z,2124
2016-11-22T08:50:57.421Z,2132
2016-11-22T08:51:57.985Z,2136
2016-11-22T08:52:57.946Z,2132
2016-11-22T08:53:57.606Z,2116
2016-11-22T08:54:57.574Z,2092
2016-11-22T08:55:57.832Z,2064
2016-11-22T08:56:57.190Z,2024
2016-11-22T08:57:57.470Z,1984
2016-11-22T08:58:57.720Z,1948
2016-11-22T08:59:57.681Z,1920
2016-11-22T09:00:57.340Z,1896
2016-11-22T09:01:57.633Z,1884
2016-11-22T09:02:57.264Z,1876
2016-11-22T09:03:57.534Z,1880
2016-11-22T09:04:57.189Z,1888
2016-11-22T09:05:57.158Z,1888
2016-11-22T09:06:57.420Z,1892
2016-11-22T09:07:57.389Z,1900
2016-11-22T09:08:57.345Z,1920
2016-11-22T09:09:57.307Z,1936
2016-11-22T09:10:57.272Z,1968
2016-11-22T09:11:57.233Z,2004
2016-11-22T09:12:56.926Z,2044
2016-11-22T09:13:56.859Z,2084
2016-11-22T09:14:57.120Z,2120
2016-11-22T09:15:56.477Z,2148
2016-11-22T09:16:57.042Z,2164
2016-11-22T09:17:56.713Z,2188
2016-11-22T09:18:56.972Z,2200
2016-11-22T09:19:56.940Z,2216
2016-11-22T09:20:56.952Z,2224
2016-11-22T09:21:56.861Z,2224
2016-11-22T09:22:56.820Z,2224
2016-11-22T09:23:56.780Z,2228
2016-11-22T09:24:56.745Z,2236
2016-11-22T09:25:56.406Z,2240
2016-11-22T09:26:56.371Z,2252
2016-11-22T09:27:56.336Z,2264
2016-11-22T09:28:56.601Z,2276
2016-11-22T09:29:56.561Z,2296
2016-11-22T09:30:56.526Z,2312
2016-11-22T09:31:56.491Z,2328
2016-11-22T09:32:56.451Z,2340
2016-11-22T09:33:56.413Z,2348
2016-11-22T09:34:56.380Z,2344
2016-11-22T09:35:56.339Z,2348
2016-11-22T09:36:56.015Z,2352
2016-11-22T09:37:56.269Z,2360
2016-11-22T09:38:56.227Z,2368
2016-11-22T09:39:55.884Z,2376
2016-11-22T09:40:56.150Z,2376
2016-11-22T09:41:55.512Z,2380
2016-11-22T09:42:56.079Z,2376
2016-11-22T09:43:56.040Z,2364
2016-11-22T09:44:56.005Z,2360
2016-11-22T09:45:55.664Z,2356
2016-11-22T09:46:55.627Z,2368
2016-11-22T09:47:55.894Z,2388
2016-11-22T09:48:55.853Z,2412
2016-11-22T09:49:55.514Z,2436
2016-11-22T09:50:55.781Z,2464
2016-11-22T09:51:55.746Z,2496
2016-11-22T09:52:55.408Z,2528
2016-11-22T09:53:55.671Z,2568
2016-11-22T09:54:55.334Z,2604
2016-11-22T09:55:55.600Z,2640
2016-11-22T09:56:55.257Z,2676
2016-11-22T09:57:55.523Z,2708
2016-11-22T09:58:55.183Z,2736
2016-11-22T09:59:54.845Z,2752
2016-11-22T10:00:55.412Z,2756
2016-11-22T10:01:55.070Z,2768
2016-11-22T10:02:55.034Z,2772
2016-11-22T10:03:55.302Z,2792
2016-11-22T10:04:55.260Z,2820
2016-11-22T10:05:55.227Z,2856
2016-11-22T10:06:55.186Z,2892
2016-11-22T10:07:54.858Z,2924
2016-11-22T10:08:55.111Z,2952
2016-11-22T10:09:54.776Z,2968
2016-11-22T10:10:54.737Z,2988
2016-11-22T10:11:54.705Z,3020
2016-11-22T10:12:54.668Z,3064
2016-11-22T10:13:54.932Z,3128
2016-11-22T10:14:54.894Z,3212
2016-11-22T10:15:54.855Z,3308
2016-11-22T10:16:54.528Z,3424
2016-11-22T10:17:54.795Z,3560
2016-11-22T10:18:54.745Z,3692
2016-11-22T10:19:54.710Z,3816
2016-11-22T10:20:54.668Z,3928
2016-11-22T10:21:54.634Z,4032
2016-11-22T10:22:53.996Z,4116
2016-11-22T10:23:54.561Z,4188
2016-11-22T10:24:54.524Z,4264
2016-11-22T10:25:54.497Z,4320
2016-11-22T10:26:54.457Z,4368
2016-11-22T10:27:54.117Z,4416
2016-11-22T10:28:54.375Z,4452
2016-11-22T10:29:54.358Z,4464
2016-11-22T10:30:54.310Z,4456
2016-11-22T10:31:53.975Z,4444
2016-11-22T10:32:54.231Z,4440
2016-11-22T10:33:54.190Z,4448
2016-11-22T10:34:54.165Z,4476
2016-11-22T10:35:54.123Z,4500
2016-11-22T10:36:54.084Z,4512
2016-11-22T10:37:53.738Z,4512
2016-11-22T10:38:54.073Z,4536
2016-11-22T10:39:53.368Z,4568
2016-11-22T10:40:53.939Z,4656
2016-11-22T10:41:53.903Z,4788
2016-11-22T10:42:53.870Z,4908
2016-11-22T10:43:53.831Z,5016
2016-11-22T10:44:53.795Z,5104
2016-11-22T10:45:53.756Z,5132
2016-11-22T10:46:53.719Z,5176
2016-11-22T10:47:53.692Z,5212
2016-11-22T10:48:53.652Z,5236
2016-11-22T10:49:53.310Z,5232
2016-11-22T10:50:53.274Z,5212
2016-11-22T10:51:53.541Z,5152
2016-11-22T10:52:53.208Z,5092
2016-11-22T10:53:53.162Z,4992
2016-11-22T10:54:53.436Z,4872
2016-11-22T10:55:53.093Z,4720
2016-11-22T10:56:53.055Z,4556
2016-11-22T10:57:53.325Z,4380
2016-11-22T10:58:53.314Z,4236
2016-11-22T10:59:53.258Z,4124
2016-11-22T11:00:53.212Z,4040
2016-11-22T11:01:53.176Z,3976
2016-11-22T11:02:53.140Z,3920
2016-11-22T11:03:52.826Z,3868
2016-11-22T11:04:52.473Z,3832
2016-11-22T11:05:53.061Z,3796
2016-11-22T11:06:53.004Z,3780
2016-11-22T11:07:52.967Z,3764
2016-11-22T11:08:52.924Z,3740
2016-11-22T11:09:52.891Z,3720
2016-11-22T11:10:52.860Z,3704
2016-11-22T11:11:52.821Z,3704
2016-11-22T11:12:52.508Z,3716
2016-11-22T11:13:52.743Z,3724
2016-11-22T11:14:52.411Z,3744
2016-11-22T11:15:52.677Z,3756
2016-11-22T11:16:52.334Z,3756
2016-11-22T11:17:52.313Z,3732
2016-11-22T11:18:52.594Z,3708
2016-11-22T11:19:52.523Z,3696
2016-11-22T11:20:52.509Z,3684
2016-11-22T11:21:52.164Z,3676
2016-11-22T11:22:52.420Z,3664
2016-11-22T11:23:52.388Z,3668
2016-11-22T11:24:52.357Z,3688
2016-11-22T11:25:52.043Z,3716
2016-11-22T11:26:52.281Z,3764
2016-11-22T11:27:52.245Z,3812
2016-11-22T11:28:51.910Z,3848
2016-11-22T11:29:51.871Z,3880
2016-11-22T11:30:52.131Z,3916
2016-11-22T11:31:52.099Z,3960
2016-11-22T11:32:52.072Z,4004
2016-11-22T11:33:52.029Z,4048
2016-11-22T11:34:51.691Z,4092
2016-11-22T11:35:51.654Z,4140
2016-11-22T11:36:51.620Z,4180
2016-11-22T11:37:51.886Z,4204
2016-11-22T11:38:51.252Z,4208
2016-11-22T11:39:51.813Z,4200
2016-11-22T11:40:51.477Z,4172
2016-11-22T11:41:51.437Z,4120
2016-11-22T11:42:51.708Z,4076
2016-11-22T11:43:51.671Z,4036
2016-11-22T11:44:51.630Z,4020
2016-11-22T11:45:51.297Z,4024
2016-11-22T11:46:51.564Z,4036
2016-11-22T11:47:51.525Z,4052
2016-11-22T11:48:50.892Z,4084
2016-11-22T11:49:51.456Z,4124
2016-11-22T11:50:51.115Z,4168
2016-11-22T11:51:51.083Z,4220
2016-11-22T11:52:51.347Z,4276
2016-11-22T11:53:51.315Z,4320
2016-11-22T11:54:51.279Z,4364
2016-11-22T11:55:50.943Z,4392
2016-11-22T11:56:50.609Z,4416
2016-11-22T11:57:51.184Z,4428
2016-11-22T11:58:51.165Z,4444
2016-11-22T11:59:50.795Z,4464
2016-11-22T12:00:51.061Z,4476
2016-11-22T12:01:51.024Z,4512
2016-11-22T12:02:50.993Z,4552
2016-11-22T12:03:50.654Z,4600
2016-11-22T12:04:50.918Z,4664
2016-11-22T12:05:50.883Z,4736
2016-11-22T12:06:50.251Z,4820
2016-11-22T12:07:50.815Z,4900
2016-11-22T12:08:50.494Z,5000
2016-11-22T12:09:50.753Z,5124
2016-11-22T12:10:50.409Z,5264
2016-11-22T12:11:50.665Z,5412
2016-11-22T12:12:50.631Z,5540
2016-11-22T12:13:50.597Z,5676
2016-11-22T12:14:50.566Z,5812
2016-11-22T12:15:50.533Z,5952
2016-11-22T12:16:50.184Z,6092
2016-11-22T12:17:50.461Z,6256
2016-11-22T12:18:49.820Z,6444
2016-11-22T12:19:50.385Z,6644
2016-11-22T12:20:50.347Z,6844
2016-11-22T12:21:50.308Z,7032
2016-11-22T12:22:50.280Z,7184
2016-11-22T12:23:50.238Z,7316
2016-11-22T12:24:50.205Z,7360
2016-11-22T12:25:49.864Z,7320
2016-11-22T12:26:49.834Z,7252
2016-11-22T12:27:49.800Z,7180
2016-11-22T12:28:49.463Z,7092
2016-11-22T12:29:49.753Z,6976
2016-11-22T12:30:49.991Z,6832
2016-11-22T12:31:49.652Z,6688
2016-11-22T12:32:49.930Z,6568
2016-11-22T12:33:49.584Z,6480
2016-11-22T12:34:49.248Z,6420
2016-11-22T12:35:49.832Z,6356
2016-11-22T12:36:49.783Z,6272
2016-11-22T12:37:49.441Z,6164
2016-11-22T12:38:49.104Z,6052
2016-11-22T12:39:49.679Z,5944
2016-11-22T12:40:49.041Z,5816
2016-11-22T12:41:49.302Z,5676
2016-11-22T12:42:49.567Z,5540
2016-11-22T12:43:49.230Z,5428
2016-11-22T12:44:49.192Z,5340
2016-11-22T12:45:49.464Z,5276
2016-11-22T12:46:49.128Z,5224
2016-11-22T12:47:49.394Z,5180
2016-11-22T12:48:49.354Z,5120
2016-11-22T12:49:49.032Z,5032
2016-11-22T12:50:49.291Z,4916
2016-11-22T12:51:49.257Z,4800
2016-11-22T12:52:49.214Z,4676
2016-11-22T12:53:49.179Z,4564
2016-11-22T12:54:48.841Z,4496
2016-11-22T12:55:48.512Z,4456
2016-11-22T12:56:49.077Z,4448
2016-11-22T12:57:48.738Z,4440
2016-11-22T12:58:48.410Z,4428
2016-11-22T12:59:48.975Z,4400
2016-11-22T13:00:48.953Z,4376
2016-11-22T13:01:48.909Z,4340
2016-11-22T13:02:48.557Z,4280
2016-11-22T13:03:48.527Z,4216
2016-11-22T13:04:48.188Z,4160
2016-11-22T13:05:48.453Z,4104
2016-11-22T13:06:48.724Z,4032
2016-11-22T13:07:49.063Z,3984
2016-11-22T13:08:48.651Z,3960
2016-11-22T13:09:48.616Z,3940
2016-11-22T13:10:48.577Z,3932
2016-11-22T13:11:48.245Z,3900
2016-11-22T13:12:48.215Z,3844
2016-11-22T13:13:48.177Z,3764
2016-11-22T13:14:48.436Z,3676
2016-11-22T13:15:48.103Z,3572
2016-11-22T13:16:48.366Z,3464
2016-11-22T13:17:48.335Z,3336
2016-11-22T13:18:47.995Z,3196
2016-11-22T13:19:48.260Z,3056
2016-11-22T13:20:48.237Z,2932
2016-11-22T13:21:48.195Z,2832
2016-11-22T13:22:47.857Z,2740
2016-11-22T13:23:47.532Z,2672
2016-11-22T13:24:48.083Z,2616
2016-11-22T13:25:48.048Z,2588
2016-11-22T13:26:48.012Z,2564
2016-11-22T13:27:47.983Z,2544
2016-11-22T13:28:47.642Z,2520
2016-11-22T13:29:47.905Z,2492
2016-11-22T13:30:47.891Z,2468
2016-11-22T13:31:47.835Z,2436
2016-11-22T13:32:47.805Z,2400
2016-11-22T13:33:47.461Z,2364
2016-11-22T13:34:47.728Z,2312
2016-11-22T13:35:47.391Z,2268
2016-11-22T13:36:47.053Z,2228
2016-11-22T13:37:47.622Z,2196
2016-11-22T13:38:47.590Z,2160
2016-11-22T13:39:46.949Z,2124
2016-11-22T13:40:47.323Z,2100
2016-11-22T13:41:47.486Z,2068
2016-11-22T13:42:47.447Z,2040
2016-11-22T13:43:47.112Z,2008
2016-11-22T13:44:47.382Z,1976
2016-11-22T13:45:47.048Z,1960
2016-11-22T13:46:46.698Z,1944
2016-11-22T13:47:47.273Z,1928
2016-11-22T13:48:47.235Z,1928
2016-11-22T13:49:47.208Z,1920
2016-11-22T13:50:47.158Z,1908
2016-11-22T13:51:47.123Z,1896
2016-11-22T13:52:47.090Z,1884
2016-11-22T13:53:46.753Z,1872
2016-11-22T13:54:46.726Z,1872
2016-11-22T13:55:46.686Z,1872
2016-11-22T13:56:46.647Z,1872
2016-11-22T13:57:46.630Z,1868
2016-11-22T13:58:46.887Z,1864